Time;durP1;ratioP1;P1;durP2;ratioP2;P2;SDS_P1;SDS_P2;PMS_P1;PMS_P2;Temp;Humidity;BMP_temperature;BMP_pressure;BME280_temperature;BME280_humidity;BME280_pressure;Samples;Min_cycle;Max_cycle;Signal;HPM_P1;HPM_P2
2023/11/06 00:02:07;;;;;;;1.70;1.50;;;12.80;77.30;;;;;;5032308;28;20033;-76
2023/11/06 00:04:33;;;;;;;2.78;1.40;;;12.70;77.30;;;;;;5030718;28;20171;-76
2023/11/06 00:06:59;;;;;;;2.08;1.40;;;12.70;77.30;;;;;;5031886;28;20124;-76
2023/11/06 00:09:25;;;;;;;1.50;1.40;;;12.70;77.40;;;;;;5011256;28;20037;-75
2023/11/06 00:11:51;;;;;;;2.53;1.50;;;12.70;77.40;;;;;;5041013;28;20029;-76
2023/11/06 00:14:17;;;;;;;1.92;1.20;;;12.70;77.40;;;;;;5047926;28;20029;-76
2023/11/06 00:16:43;;;;;;;1.52;1.20;;;12.70;77.40;;;;;;5059434;28;20037;-76
2023/11/06 00:19:09;;;;;;;1.35;1.20;;;12.70;77.40;;;;;;5040967;28;20223;-75
2023/11/06 00:21:36;;;;;;;2.28;1.40;;;12.70;77.40;;;;;;5055321;28;20025;-75
2023/11/06 00:24:02;;;;;;;2.03;1.20;;;12.70;77.50;;;;;;5052353;28;20108;-76
2023/11/06 00:26:27;;;;;;;2.13;1.55;;;12.70;77.50;;;;;;5053239;28;20140;-76
2023/11/06 00:28:55;;;;;;;1.73;1.38;;;12.70;77.50;;;;;;5037621;28;20358;-76
2023/11/06 00:31:21;;;;;;;1.42;1.20;;;12.60;77.40;;;;;;5020609;28;20039;-75
2023/11/06 00:33:48;;;;;;;1.67;1.27;;;12.70;77.50;;;;;;5047068;28;20116;-76
2023/11/06 00:36:32;;;;;;;1.30;1.20;;;12.70;77.50;;;;;;5029194;28;20135;-76
2023/11/06 00:38:57;;;;;;;2.30;1.48;;;12.70;77.50;;;;;;5047502;28;20028;-76
2023/11/06 00:41:23;;;;;;;1.17;1.05;;;12.60;77.30;;;;;;5043339;28;20032;-76
2023/11/06 00:43:49;;;;;;;1.85;1.40;;;12.70;77.40;;;;;;4995817;28;20025;-76
2023/11/06 00:46:15;;;;;;;1.27;1.17;;;12.70;77.40;;;;;;5045189;28;20470;-76
2023/11/06 00:48:40;;;;;;;1.20;1.10;;;12.60;77.40;;;;;;5027575;28;20052;-76
2023/11/06 00:51:06;;;;;;;2.08;1.20;;;12.60;77.40;;;;;;5028646;28;20033;-75
2023/11/06 00:53:32;;;;;;;1.38;1.20;;;12.60;77.40;;;;;;5045021;28;20110;-76
2023/11/06 00:55:58;;;;;;;1.33;1.23;;;12.60;77.40;;;;;;5010150;28;20033;-76
2023/11/06 00:58:24;;;;;;;1.45;1.25;;;12.60;77.40;;;;;;5046266;28;20021;-76
2023/11/06 01:00:50;;;;;;;2.30;1.15;;;12.60;77.50;;;;;;5025434;28;20127;-76
2023/11/06 01:03:15;;;;;;;1.52;1.17;;;12.60;77.40;;;;;;5044057;28;20044;-76
2023/11/06 01:05:42;;;;;;;2.50;1.23;;;12.60;77.40;;;;;;5034905;28;20097;-76
2023/11/06 01:08:08;;;;;;;1.30;1.20;;;12.60;77.40;;;;;;5043581;28;20056;-76
2023/11/06 01:10:34;;;;;;;1.33;1.15;;;12.60;77.50;;;;;;5049480;28;20068;-76
2023/11/06 01:13:01;;;;;;;1.15;1.05;;;12.60;77.50;;;;;;5044940;28;20371;-77
2023/11/06 01:15:27;;;;;;;1.95;1.15;;;12.60;77.50;;;;;;5028282;28;20080;-76
2023/11/06 01:17:53;;;;;;;1.58;1.20;;;12.60;77.50;;;;;;5043906;28;20481;-76
2023/11/06 01:20:21;;;;;;;0.95;0.95;;;12.60;77.50;;;;;;5044335;28;20030;-76
2023/11/06 01:22:47;;;;;;;1.50;1.40;;;12.60;77.50;;;;;;5048897;28;20029;-76
2023/11/06 01:25:13;;;;;;;1.23;1.05;;;12.60;77.40;;;;;;5045037;28;20047;-77
2023/11/06 01:27:39;;;;;;;1.25;1.15;;;12.60;77.40;;;;;;5029227;28;20029;-76
2023/11/06 01:30:06;;;;;;;2.15;1.40;;;12.60;77.50;;;;;;5027922;28;20103;-76
2023/11/06 01:32:32;;;;;;;1.20;1.10;;;12.60;77.50;;;;;;5043689;28;20670;-76
2023/11/06 01:34:58;;;;;;;1.20;1.10;;;12.50;77.40;;;;;;5046919;28;20033;-76
2023/11/06 01:37:26;;;;;;;1.35;1.10;;;12.50;77.50;;;;;;5010306;28;20045;-76
2023/11/06 01:39:52;;;;;;;1.25;1.10;;;12.50;77.50;;;;;;5047499;28;20052;-76
2023/11/06 01:42:17;;;;;;;1.67;1.15;;;12.50;77.50;;;;;;5044449;28;20021;-76
2023/11/06 01:44:43;;;;;;;0.95;0.95;;;12.50;77.50;;;;;;5010872;28;20040;-76
2023/11/06 01:47:10;;;;;;;1.65;1.30;;;12.50;77.50;;;;;;5042842;28;20037;-76
2023/11/06 01:49:40;;;;;;;0.98;0.90;;;12.50;77.60;;;;;;5030652;28;20106;-75
2023/11/06 01:52:11;;;;;;;1.13;1.10;;;12.50;77.60;;;;;;5042997;28;20091;-76
2023/11/06 01:54:37;;;;;;;1.30;1.20;;;12.50;77.50;;;;;;5040407;28;20052;-76
2023/11/06 01:57:03;;;;;;;2.20;1.23;;;12.50;77.50;;;;;;5029791;28;20139;-76
2023/11/06 01:59:29;;;;;;;2.17;1.23;;;12.40;77.50;;;;;;5016310;28;20466;-75
2023/11/06 02:02:05;;;;;;;1.52;1.00;;;12.50;77.60;;;;;;5028582;28;20036;-77
2023/11/06 02:04:31;;;;;;;0.93;0.93;;;12.40;77.60;;;;;;5057410;28;20022;-76
2023/11/06 02:06:58;;;;;;;1.20;1.10;;;12.40;77.50;;;;;;5044117;28;20063;-76
2023/11/06 02:09:27;;;;;;;1.10;1.10;;;12.50;77.60;;;;;;5051216;28;20035;-76
2023/11/06 02:11:53;;;;;;;1.00;0.98;;;12.50;77.60;;;;;;5048501;28;20029;-75
2023/11/06 02:14:18;;;;;;;1.30;1.20;;;12.40;77.50;;;;;;5047848;28;20039;-76
2023/11/06 02:16:44;;;;;;;1.42;1.02;;;12.40;77.50;;;;;;5043764;28;20466;-76
2023/11/06 02:19:10;;;;;;;1.10;1.00;;;12.40;77.50;;;;;;5033128;28;20093;-76
2023/11/06 02:21:36;;;;;;;1.00;0.90;;;12.40;77.50;;;;;;5047091;28;20033;-76
2023/11/06 02:24:03;;;;;;;0.98;0.98;;;12.50;77.60;;;;;;5042361;28;20412;-76
2023/11/06 02:26:29;;;;;;;1.30;1.17;;;12.50;77.60;;;;;;5010901;28;20131;-78
2023/11/06 02:28:55;;;;;;;1.90;1.02;;;12.50;77.60;;;;;;5044533;28;20025;-76
2023/11/06 02:31:21;;;;;;;2.08;1.20;;;12.40;77.50;;;;;;5041636;28;20033;-76
2023/11/06 02:33:47;;;;;;;1.20;1.10;;;12.50;77.60;;;;;;5027383;28;20082;-75
2023/11/06 02:36:13;;;;;;;1.17;1.08;;;12.40;77.60;;;;;;5027529;28;20037;-77
2023/11/06 02:38:39;;;;;;;1.63;1.23;;;12.40;77.60;;;;;;5042981;28;20061;-76
2023/11/06 02:41:05;;;;;;;1.42;1.02;;;12.40;77.50;;;;;;5015548;28;20504;-76
2023/11/06 02:43:30;;;;;;;1.50;1.10;;;12.40;77.60;;;;;;5025688;28;20116;-76
2023/11/06 02:45:56;;;;;;;1.15;1.05;;;12.50;77.60;;;;;;5026956;28;20060;-76
2023/11/06 02:48:22;;;;;;;1.75;1.00;;;12.40;77.60;;;;;;5027513;28;20094;-77
2023/11/06 02:50:49;;;;;;;1.95;1.10;;;12.40;77.60;;;;;;5034173;28;20394;-76
2023/11/06 02:53:15;;;;;;;1.30;1.20;;;12.40;77.60;;;;;;5024694;28;20022;-75
2023/11/06 02:55:41;;;;;;;1.60;1.17;;;12.40;77.60;;;;;;5043289;28;20029;-76
2023/11/06 02:58:07;;;;;;;2.10;1.20;;;12.40;77.60;;;;;;5042535;28;20083;-77
2023/11/06 03:00:32;;;;;;;1.45;1.35;;;12.40;77.50;;;;;;5034471;28;20037;-76
2023/11/06 03:02:59;;;;;;;1.30;1.20;;;12.40;77.50;;;;;;5023097;28;20098;-76
2023/11/06 03:05:25;;;;;;;1.33;1.20;;;12.40;77.60;;;;;;5025812;28;20033;-76
2023/11/06 03:07:51;;;;;;;1.40;1.30;;;12.40;77.60;;;;;;5042986;28;20041;-76
2023/11/06 03:10:17;;;;;;;1.83;1.20;;;12.40;77.60;;;;;;5029063;28;20502;-76
2023/11/06 03:12:43;;;;;;;1.45;1.30;;;12.40;77.60;;;;;;5031871;28;20060;-76
2023/11/06 03:15:10;;;;;;;1.75;1.30;;;12.40;77.60;;;;;;5053403;28;20033;-76
2023/11/06 03:17:36;;;;;;;1.75;1.10;;;12.40;77.60;;;;;;5024043;28;20056;-76
2023/11/06 03:20:08;;;;;;;1.65;1.27;;;12.40;77.60;;;;;;5024874;28;20124;-76
2023/11/06 03:22:33;;;;;;;1.40;1.30;;;12.40;77.60;;;;;;5043066;28;20025;-76
2023/11/06 03:24:59;;;;;;;2.22;1.25;;;12.40;77.60;;;;;;5009784;28;20033;-76
2023/11/06 03:27:25;;;;;;;1.00;1.00;;;12.40;77.60;;;;;;5007392;28;20374;-76
2023/11/06 03:29:50;;;;;;;1.67;1.30;;;12.40;77.60;;;;;;5027345;28;20535;-76
2023/11/06 03:32:16;;;;;;;1.45;1.30;;;12.40;77.60;;;;;;5042799;28;20072;-76
2023/11/06 03:34:45;;;;;;;1.63;1.25;;;12.40;77.60;;;;;;5044680;28;20398;-77
2023/11/06 03:37:11;;;;;;;1.50;1.40;;;12.40;77.60;;;;;;5026321;28;20056;-76
2023/11/06 03:39:36;;;;;;;1.40;1.30;;;12.40;77.60;;;;;;5012492;28;20025;-76
2023/11/06 03:42:02;;;;;;;1.42;1.15;;;12.40;77.60;;;;;;5040858;28;20031;-76
2023/11/06 03:44:28;;;;;;;1.25;1.17;;;12.40;77.60;;;;;;5046854;28;20111;-76
2023/11/06 03:46:54;;;;;;;1.02;1.00;;;12.40;77.70;;;;;;5025405;28;20470;-77
2023/11/06 03:49:21;;;;;;;1.65;1.45;;;12.40;77.60;;;;;;5030010;28;20522;-76
2023/11/06 03:51:47;;;;;;;1.60;1.40;;;12.30;77.60;;;;;;5042085;28;20029;-76
2023/11/06 03:54:12;;;;;;;2.60;1.30;;;12.40;77.60;;;;;;5044439;28;20102;-76
2023/11/06 03:56:38;;;;;;;1.70;1.33;;;12.30;77.60;;;;;;5029372;28;20160;-77
2023/11/06 03:59:04;;;;;;;1.92;1.23;;;12.40;77.80;;;;;;5043004;28;20472;-76
2023/11/06 04:01:34;;;;;;;1.35;1.25;;;12.30;77.70;;;;;;5009961;28;20029;-77
2023/11/06 04:04:01;;;;;;;1.77;1.38;;;12.30;77.70;;;;;;5041096;28;20091;-76
2023/11/06 04:06:27;;;;;;;1.30;1.20;;;12.30;77.60;;;;;;5049907;28;20064;-77
2023/11/06 04:08:53;;;;;;;1.95;1.15;;;12.30;77.70;;;;;;5028242;28;20119;-75
2023/11/06 04:11:18;;;;;;;1.20;1.10;;;12.30;77.60;;;;;;5026641;28;20045;-76
2023/11/06 04:13:44;;;;;;;1.30;1.20;;;12.30;77.70;;;;;;5044174;28;20453;-76
2023/11/06 04:16:10;;;;;;;1.48;1.27;;;12.30;77.70;;;;;;5028528;28;20142;-77
2023/11/06 04:18:36;;;;;;;2.13;1.20;;;12.30;77.70;;;;;;5040846;28;20025;-76
2023/11/06 04:21:03;;;;;;;1.20;1.10;;;12.30;77.70;;;;;;5028231;28;20029;-76
2023/11/06 04:23:29;;;;;;;1.80;1.30;;;12.30;77.70;;;;;;5026427;28;20037;-76
2023/11/06 04:25:55;;;;;;;1.88;1.10;;;12.30;77.70;;;;;;5024485;28;20052;-76
2023/11/06 04:28:20;;;;;;;1.38;1.23;;;12.30;77.70;;;;;;5031479;28;20033;-76
2023/11/06 04:30:46;;;;;;;1.27;1.10;;;12.30;77.70;;;;;;5045599;28;20068;-76
2023/11/06 04:33:12;;;;;;;1.35;1.20;;;12.30;77.70;;;;;;5029133;28;20057;-76
2023/11/06 04:35:38;;;;;;;1.45;1.02;;;12.30;77.70;;;;;;5044603;28;20497;-76
2023/11/06 04:38:04;;;;;;;1.00;0.90;;;12.20;77.70;;;;;;5026534;28;20047;-76
2023/11/06 04:40:30;;;;;;;1.35;1.23;;;12.30;77.70;;;;;;5029282;28;20485;-75
2023/11/06 04:42:56;;;;;;;1.67;1.10;;;12.20;77.70;;;;;;5032902;28;20108;-76
2023/11/06 04:45:22;;;;;;;1.50;1.30;;;12.20;77.70;;;;;;5014739;28;20075;-76
2023/11/06 04:47:48;;;;;;;2.20;1.45;;;12.30;77.80;;;;;;5025062;28;20210;-77
2023/11/06 04:50:14;;;;;;;1.40;1.30;;;12.20;77.70;;;;;;5048253;28;20501;-76
2023/11/06 04:52:40;;;;;;;1.20;1.10;;;12.20;77.70;;;;;;5030006;28;20027;-76
2023/11/06 04:55:06;;;;;;;1.05;0.95;;;12.20;77.70;;;;;;5032265;28;20053;-76
2023/11/06 04:57:32;;;;;;;1.10;1.08;;;12.20;77.70;;;;;;5030634;28;20124;-77
2023/11/06 04:59:58;;;;;;;0.90;0.90;;;12.20;77.70;;;;;;5045725;28;20119;-76
2023/11/06 05:02:27;;;;;;;1.17;1.05;;;12.20;77.70;;;;;;5031155;28;20021;-76
2023/11/06 05:04:52;;;;;;;3.42;1.20;;;12.20;77.80;;;;;;5030531;28;20041;-76
2023/11/06 05:07:18;;;;;;;1.50;1.10;;;12.20;77.70;;;;;;5033279;28;20041;-76
2023/11/06 05:09:44;;;;;;;1.23;1.10;;;12.20;77.70;;;;;;5013571;28;20456;-77
2023/11/06 05:12:10;;;;;;;1.05;1.00;;;12.10;77.70;;;;;;5046122;28;20127;-76
2023/11/06 05:14:36;;;;;;;1.05;1.02;;;12.10;77.70;;;;;;5048576;28;20086;-76
2023/11/06 05:17:02;;;;;;;1.17;1.05;;;12.10;77.70;;;;;;5046988;28;20043;-76
2023/11/06 05:19:29;;;;;;;1.17;1.00;;;12.10;77.70;;;;;;5043806;28;20538;-76
2023/11/06 05:21:55;;;;;;;1.17;1.00;;;12.10;77.70;;;;;;5048103;28;20028;-75
2023/11/06 05:24:23;;;;;;;0.82;0.82;;;12.10;77.70;;;;;;5031673;28;20536;-76
2023/11/06 05:26:49;;;;;;;1.38;1.10;;;12.10;77.70;;;;;;5032100;28;20045;-77
2023/11/06 05:29:15;;;;;;;1.00;1.00;;;12.10;77.70;;;;;;5026835;28;20034;-76
2023/11/06 05:31:41;;;;;;;1.05;1.00;;;12.10;77.70;;;;;;5044397;28;20043;-76
2023/11/06 05:34:07;;;;;;;1.00;1.00;;;12.10;77.70;;;;;;5043011;28;20029;-75
2023/11/06 05:36:33;;;;;;;1.40;1.10;;;12.10;77.70;;;;;;5011895;28;20129;-76
2023/11/06 05:38:59;;;;;;;1.35;1.10;;;12.10;77.80;;;;;;5044848;28;20033;-77
2023/11/06 05:41:25;;;;;;;1.13;1.02;;;12.10;77.80;;;;;;5046495;28;20443;-76
2023/11/06 05:43:51;;;;;;;1.45;1.00;;;12.10;77.80;;;;;;5042728;28;20428;-76
2023/11/06 05:46:16;;;;;;;0.80;0.80;;;12.00;77.70;;;;;;5012118;28;20037;-76
2023/11/06 05:48:42;;;;;;;1.27;1.20;;;12.00;77.70;;;;;;5042321;28;20282;-76
2023/11/06 05:51:08;;;;;;;0.95;0.95;;;12.00;77.80;;;;;;5042626;28;20090;-76
2023/11/06 05:53:34;;;;;;;0.95;0.95;;;12.00;77.70;;;;;;5029817;28;20025;-75
2023/11/06 05:56:00;;;;;;;1.02;0.85;;;12.00;77.70;;;;;;5026744;28;20152;-76
2023/11/06 05:58:25;;;;;;;1.17;1.08;;;12.00;77.70;;;;;;5032354;28;20044;-76
2023/11/06 06:00:51;;;;;;;0.90;0.90;;;12.00;77.70;;;;;;5040871;28;20029;-75
2023/11/06 06:03:18;;;;;;;1.45;0.90;;;12.00;77.70;;;;;;5022909;28;20037;-75
2023/11/06 06:05:43;;;;;;;1.20;1.00;;;12.00;77.70;;;;;;5050185;28;20037;-75
2023/11/06 06:08:11;;;;;;;0.80;0.80;;;12.00;77.70;;;;;;5015741;28;20043;-75
2023/11/06 06:10:37;;;;;;;1.30;1.10;;;12.00;77.80;;;;;;5047266;28;20461;-75
2023/11/06 06:13:02;;;;;;;0.90;0.90;;;12.00;77.80;;;;;;5032760;28;20115;-75
2023/11/06 06:15:28;;;;;;;1.60;1.10;;;12.00;77.80;;;;;;5042711;28;20045;-75
2023/11/06 06:17:54;;;;;;;1.20;1.00;;;12.00;77.80;;;;;;5046828;28;20497;-79
2023/11/06 06:20:20;;;;;;;1.25;1.15;;;12.00;77.80;;;;;;5044130;28;21539;-76
2023/11/06 06:22:46;;;;;;;1.58;1.23;;;12.00;77.80;;;;;;5044386;28;20017;-77
2023/11/06 06:25:12;;;;;;;1.30;1.20;;;11.90;77.80;;;;;;5027289;28;20185;-77
2023/11/06 06:27:38;;;;;;;1.38;1.00;;;12.00;77.80;;;;;;5037583;28;20030;-76
2023/11/06 06:30:08;;;;;;;1.08;1.05;;;11.90;77.70;;;;;;5024677;28;20044;-77
2023/11/06 06:32:34;;;;;;;1.00;1.00;;;11.90;77.80;;;;;;5041785;28;20114;-76
2023/11/06 06:35:01;;;;;;;2.53;1.27;;;11.90;77.80;;;;;;5025547;28;20045;-77
2023/11/06 06:37:27;;;;;;;2.03;1.10;;;11.90;77.80;;;;;;5025066;28;20021;-77
2023/11/06 06:39:52;;;;;;;1.65;1.30;;;11.90;77.80;;;;;;5043891;28;20471;-77
2023/11/06 06:42:18;;;;;;;1.70;1.30;;;11.90;77.80;;;;;;5046295;28;20485;-76
2023/11/06 06:44:44;;;;;;;2.25;1.20;;;11.90;77.80;;;;;;5045385;28;20049;-77
2023/11/06 06:47:10;;;;;;;1.35;1.17;;;11.90;77.80;;;;;;5043695;28;20028;-76
2023/11/06 06:49:40;;;;;;;1.30;1.20;;;11.90;77.70;;;;;;5026230;28;20359;-76
2023/11/06 06:52:07;;;;;;;1.42;1.30;;;11.90;77.80;;;;;;5053448;28;20029;-76
2023/11/06 06:54:33;;;;;;;1.67;1.25;;;11.90;77.80;;;;;;5040453;28;20144;-76
2023/11/06 06:56:59;;;;;;;1.75;1.27;;;11.90;77.80;;;;;;5031292;28;20119;-76
2023/11/06 06:59:26;;;;;;;1.90;1.20;;;11.90;77.80;;;;;;5029850;28;20459;-77
2023/11/06 07:01:52;;;;;;;1.42;1.23;;;11.90;77.80;;;;;;5035677;28;20036;-76
2023/11/06 07:04:18;;;;;;;2.10;1.35;;;11.90;77.80;;;;;;5041042;28;20044;-76
2023/11/06 07:06:44;;;;;;;1.60;1.30;;;11.90;77.80;;;;;;5052287;28;20508;-76
2023/11/06 07:09:10;;;;;;;2.63;1.25;;;11.90;77.80;;;;;;5059187;28;20132;-76
2023/11/06 07:11:35;;;;;;;1.40;1.30;;;11.90;77.80;;;;;;5018929;28;20865;-76
2023/11/06 07:14:01;;;;;;;1.52;1.20;;;11.90;77.80;;;;;;5054135;28;20543;-76
2023/11/06 07:16:27;;;;;;;1.80;1.40;;;11.90;77.80;;;;;;5047260;28;20035;-76
2023/11/06 07:18:53;;;;;;;2.13;1.38;;;11.90;77.80;;;;;;5037784;28;20025;-77
2023/11/06 07:21:18;;;;;;;3.17;1.50;;;11.90;77.80;;;;;;5046021;28;20116;-76
2023/11/06 07:23:44;;;;;;;1.50;1.40;;;11.90;77.80;;;;;;5037006;28;20025;-76
2023/11/06 07:26:10;;;;;;;2.30;1.70;;;11.90;77.80;;;;;;5050370;28;20447;-76
2023/11/06 07:28:36;;;;;;;1.40;1.30;;;11.90;77.80;;;;;;5032909;28;20041;-76
2023/11/06 07:31:03;;;;;;;2.25;1.38;;;11.90;77.80;;;;;;5041549;28;20025;-76
2023/11/06 07:33:29;;;;;;;1.30;1.20;;;11.90;77.80;;;;;;5057447;28;20465;-76
2023/11/06 07:35:54;;;;;;;1.35;1.20;;;11.90;77.80;;;;;;5037999;28;20037;-76
2023/11/06 07:38:20;;;;;;;2.22;1.40;;;11.90;77.80;;;;;;5032554;28;20072;-76
2023/11/06 07:40:46;;;;;;;1.50;1.40;;;11.90;77.80;;;;;;5053846;28;20029;-76
2023/11/06 07:43:12;;;;;;;1.40;1.30;;;11.90;77.80;;;;;;5034108;28;20112;-76
2023/11/06 07:45:38;;;;;;;1.40;1.20;;;11.90;77.80;;;;;;5031799;28;20557;-76
2023/11/06 07:48:05;;;;;;;3.50;1.50;;;11.90;77.80;;;;;;5045432;28;20482;-76
2023/11/06 07:50:33;;;;;;;2.17;1.40;;;11.90;77.80;;;;;;5019463;28;20385;-77
2023/11/06 07:52:58;;;;;;;1.42;1.30;;;11.90;77.80;;;;;;5045881;28;20060;-76
2023/11/06 07:55:24;;;;;;;2.08;1.42;;;11.90;77.80;;;;;;5050329;28;20081;-76
2023/11/06 07:57:50;;;;;;;2.30;1.50;;;11.90;77.80;;;;;;5047530;28;20103;-77
2023/11/06 08:00:17;;;;;;;2.53;1.33;;;11.90;77.80;;;;;;5045898;28;20017;-76
2023/11/06 08:02:43;;;;;;;1.42;1.10;;;12.00;77.80;;;;;;5032795;28;20018;-77
2023/11/06 08:05:09;;;;;;;1.50;1.30;;;11.90;77.80;;;;;;5037378;28;20488;-76
2023/11/06 08:07:36;;;;;;;2.40;1.40;;;11.90;77.80;;;;;;5054998;28;20025;-76
2023/11/06 08:10:03;;;;;;;2.13;1.42;;;11.90;77.80;;;;;;5028855;28;20029;-77
2023/11/06 08:12:29;;;;;;;1.88;1.40;;;11.90;78.40;;;;;;5052676;28;20121;-76
2023/11/06 08:14:55;;;;;;;1.67;1.20;;;12.00;77.80;;;;;;5020495;28;20032;-76
2023/11/06 08:17:21;;;;;;;3.10;1.48;;;11.90;77.80;;;;;;5036714;28;20033;-76
2023/11/06 08:19:47;;;;;;;1.83;1.33;;;11.90;77.80;;;;;;5009526;28;20040;-77
2023/11/06 08:22:12;;;;;;;1.73;1.23;;;12.00;77.80;;;;;;5038753;28;20064;-76
2023/11/06 08:24:39;;;;;;;3.08;1.58;;;12.00;78.00;;;;;;5041557;28;20474;-76
2023/11/06 08:27:05;;;;;;;1.20;1.10;;;12.00;77.80;;;;;;5038798;28;20033;-77
2023/11/06 08:29:30;;;;;;;3.38;1.23;;;12.00;77.80;;;;;;5062481;28;20055;-77
2023/11/06 08:31:59;;;;;;;1.92;1.58;;;12.00;77.80;;;;;;5032566;28;20473;-76
2023/11/06 08:34:25;;;;;;;1.85;1.40;;;12.00;77.80;;;;;;5033825;28;20107;-76
2023/11/06 08:36:51;;;;;;;2.95;1.20;;;12.00;77.80;;;;;;5032440;28;20114;-76
2023/11/06 08:39:17;;;;;;;2.25;1.35;;;12.00;78.40;;;;;;5047604;28;20029;-76
2023/11/06 08:41:44;;;;;;;2.28;1.15;;;12.00;77.80;;;;;;5057559;28;20032;-76
2023/11/06 08:44:10;;;;;;;1.27;1.15;;;12.00;77.70;;;;;;5048180;28;20781;-76
2023/11/06 08:46:36;;;;;;;2.13;1.23;;;12.00;77.70;;;;;;5029629;28;20030;-76
2023/11/06 08:49:02;;;;;;;2.30;1.23;;;12.00;77.70;;;;;;5056961;28;20032;-76
2023/11/06 08:51:34;;;;;;;1.60;1.30;;;12.00;77.70;;;;;;5038237;28;20036;-76
2023/11/06 08:54:00;;;;;;;1.42;1.33;;;12.10;77.80;;;;;;5055577;28;20087;-76
2023/11/06 08:56:29;;;;;;;2.80;1.20;;;12.10;77.80;;;;;;5052493;28;20494;-76
2023/11/06 08:58:56;;;;;;;2.13;1.38;;;12.10;77.80;;;;;;5044849;28;20362;-76
2023/11/06 09:01:22;;;;;;;1.35;1.17;;;12.10;77.80;;;;;;5040883;28;20025;-76
2023/11/06 09:03:48;;;;;;;1.45;1.25;;;12.10;77.80;;;;;;5058445;28;20044;-76
2023/11/06 09:06:13;;;;;;;1.52;1.20;;;12.10;77.80;;;;;;5054521;28;20065;-76
2023/11/06 09:08:39;;;;;;;3.70;1.42;;;12.10;77.80;;;;;;5036483;28;20064;-76
2023/11/06 09:11:06;;;;;;;2.35;1.27;;;12.10;77.90;;;;;;5021766;28;20466;-76
2023/11/06 09:13:36;;;;;;;2.58;1.25;;;12.10;77.90;;;;;;5052889;28;20128;-76
2023/11/06 09:16:05;;;;;;;1.65;1.20;;;12.20;78.00;;;;;;5022890;28;20036;-76
2023/11/06 09:18:31;;;;;;;2.70;1.50;;;12.20;78.00;;;;;;5048806;28;20039;-75
2023/11/06 09:20:57;;;;;;;1.63;1.23;;;12.20;78.00;;;;;;5039658;28;20040;-76
2023/11/06 09:23:22;;;;;;;2.42;1.20;;;12.20;78.00;;;;;;5052519;28;20530;-77
2023/11/06 09:25:48;;;;;;;1.80;1.30;;;12.30;78.00;;;;;;5054698;28;20036;-76
2023/11/06 09:28:14;;;;;;;1.55;1.20;;;12.30;78.00;;;;;;5039286;28;20052;-77
2023/11/06 09:30:46;;;;;;;2.75;1.30;;;12.30;78.00;;;;;;5036269;28;20487;-76
2023/11/06 09:33:12;;;;;;;1.95;1.35;;;12.30;78.10;;;;;;5053454;28;20090;-77
2023/11/06 09:35:38;;;;;;;3.60;1.17;;;12.30;78.00;;;;;;5037220;28;20049;-76
2023/11/06 09:38:04;;;;;;;1.67;1.30;;;12.30;78.00;;;;;;5044273;28;20449;-76
2023/11/06 09:40:29;;;;;;;2.58;1.30;;;12.40;78.10;;;;;;5041534;28;20033;-76
2023/11/06 09:42:56;;;;;;;2.88;1.30;;;12.40;78.10;;;;;;5048693;28;20021;-75
2023/11/06 09:45:24;;;;;;;3.75;1.27;;;12.40;78.10;;;;;;5045672;28;20060;-75
2023/11/06 09:47:51;;;;;;;2.63;1.15;;;12.40;78.10;;;;;;5061025;28;20028;-76
2023/11/06 09:50:24;;;;;;;1.73;1.25;;;12.40;78.10;;;;;;5058101;28;20025;-77
2023/11/06 09:52:53;;;;;;;2.42;1.40;;;12.40;78.10;;;;;;5050750;28;20024;-76
2023/11/06 09:55:19;;;;;;;1.65;1.17;;;12.50;78.70;;;;;;5052941;28;20132;-76
2023/11/06 09:57:50;;;;;;;2.78;1.40;;;12.50;78.00;;;;;;5033733;28;20446;-76
2023/11/06 10:00:16;;;;;;;1.85;1.30;;;12.50;78.00;;;;;;5056985;28;20029;-76
2023/11/06 10:02:48;;;;;;;2.42;1.60;;;12.60;78.10;;;;;;5054562;28;20037;-76
2023/11/06 10:05:16;;;;;;;2.83;1.30;;;12.50;78.00;;;;;;5056683;28;20033;-77
2023/11/06 10:07:43;;;;;;;1.50;1.17;;;12.60;78.10;;;;;;5048414;28;20106;-76
2023/11/06 10:10:21;;;;;;;2.92;1.52;;;12.60;78.10;;;;;;5059844;28;20017;-77
2023/11/06 10:13:03;;;;;;;2.88;1.60;;;12.60;78.00;;;;;;5033232;28;20108;-76
2023/11/06 10:15:34;;;;;;;2.15;1.30;;;12.70;78.10;;;;;;5059056;28;20485;-76
2023/11/06 10:18:20;;;;;;;2.80;1.38;;;12.70;78.00;;;;;;5032784;28;20033;-76
2023/11/06 10:20:51;;;;;;;2.28;1.20;;;12.70;78.10;;;;;;5047568;28;20035;-76
2023/11/06 10:23:37;;;;;;;2.58;1.58;;;12.80;78.00;;;;;;5057709;28;20133;-76
2023/11/06 10:26:15;;;;;;;2.00;1.27;;;12.80;78.10;;;;;;5058485;28;20083;-76
2023/11/06 10:28:41;;;;;;;1.85;1.30;;;12.80;78.00;;;;;;5037615;28;20145;-76
2023/11/06 10:31:07;;;;;;;1.65;1.30;;;12.80;78.00;;;;;;5040273;28;20415;-76
2023/11/06 10:33:33;;;;;;;2.33;1.10;;;12.80;77.90;;;;;;5026961;28;20032;-76
2023/11/06 10:35:59;;;;;;;1.73;1.20;;;12.80;77.90;;;;;;5052915;28;20037;-76
2023/11/06 10:38:30;;;;;;;1.98;1.40;;;12.90;77.90;;;;;;5055679;28;20032;-76
2023/11/06 10:41:13;;;;;;;1.65;1.20;;;12.90;77.90;;;;;;5051482;28;20029;-76
2023/11/06 10:43:41;;;;;;;3.13;1.45;;;12.90;77.90;;;;;;5053520;28;20036;-76
2023/11/06 10:46:10;;;;;;;2.90;1.42;;;13.00;77.90;;;;;;5052002;28;20121;-76
2023/11/06 10:48:56;;;;;;;2.85;1.13;;;13.00;77.90;;;;;;5052037;28;20473;-76
2023/11/06 10:51:23;;;;;;;1.55;1.20;;;13.00;78.50;;;;;;5043228;28;20029;-76
2023/11/06 10:53:50;;;;;;;4.05;1.63;;;13.00;77.80;;;;;;5045024;28;20059;-76
2023/11/06 10:56:19;;;;;;;3.15;1.30;;;13.00;77.70;;;;;;5052046;28;20130;-76
2023/11/06 10:58:45;;;;;;;2.25;1.30;;;13.10;77.80;;;;;;5051269;28;20029;-76
2023/11/06 11:01:13;;;;;;;2.55;1.40;;;13.10;77.80;;;;;;5054292;28;20047;-76
2023/11/06 11:03:40;;;;;;;3.65;1.33;;;13.10;77.70;;;;;;5056328;28;20025;-77
2023/11/06 11:06:10;;;;;;;2.65;1.40;;;13.20;77.70;;;;;;5032989;28;20029;-76
2023/11/06 11:08:36;;;;;;;3.72;1.58;;;13.20;77.70;;;;;;5047069;28;20024;-76
2023/11/06 11:11:05;;;;;;;2.08;1.30;;;13.20;77.60;;;;;;5058270;28;20386;-76
2023/11/06 11:13:31;;;;;;;2.42;1.13;;;13.20;77.60;;;;;;5051588;28;20041;-76
2023/11/06 11:16:36;;;;;;;3.03;1.58;;;13.20;77.50;;;;;;5051433;28;20114;-76
2023/11/06 11:19:21;;;;;;;2.15;1.20;;;13.30;77.60;;;;;;5051360;28;20039;-76
2023/11/06 11:22:03;;;;;;;2.20;1.20;;;13.30;77.50;;;;;;5044347;28;20032;-77
2023/11/06 11:24:41;;;;;;;1.92;1.17;;;13.30;77.40;;;;;;5039993;28;20035;-76
2023/11/06 11:27:07;;;;;;;2.05;1.20;;;13.40;77.40;;;;;;5055095;28;20038;-76
2023/11/06 11:29:58;;;;;;;3.20;1.30;;;13.40;77.40;;;;;;5054865;28;20029;-77
2023/11/06 11:32:27;;;;;;;3.42;1.48;;;13.40;77.40;;;;;;5060023;28;20072;-76
2023/11/06 11:34:57;;;;;;;3.33;1.20;;;13.40;77.30;;;;;;5058147;28;20052;-76
2023/11/06 11:37:26;;;;;;;2.90;1.40;;;13.50;77.30;;;;;;5041380;28;20128;-76
2023/11/06 11:39:52;;;;;;;1.70;1.10;;;13.50;77.20;;;;;;5061321;28;20024;-76
2023/11/06 11:42:18;;;;;;;3.35;1.30;;;13.50;77.20;;;;;;5054480;28;20104;-76
2023/11/06 11:44:57;;;;;;;2.20;1.20;;;13.60;77.20;;;;;;5060695;28;20128;-78
2023/11/06 11:47:23;;;;;;;3.00;1.50;;;13.60;77.20;;;;;;5040438;28;20025;-76
2023/11/06 11:49:50;;;;;;;2.95;1.30;;;13.60;77.00;;;;;;5046321;28;20542;-75
2023/11/06 11:52:36;;;;;;;3.45;1.40;;;13.60;77.00;;;;;;5040987;28;20040;-76
2023/11/06 11:55:28;;;;;;;4.03;1.50;;;13.70;77.00;;;;;;5057852;28;20091;-76
2023/11/06 11:58:01;;;;;;;2.17;1.40;;;13.70;77.00;;;;;;5064058;28;20028;-75
2023/11/06 12:00:26;;;;;;;2.20;1.27;;;13.70;76.80;;;;;;5066704;28;20029;-76
2023/11/06 12:03:07;;;;;;;2.70;1.17;;;13.80;76.90;;;;;;5065643;28;20535;-76
2023/11/06 12:05:33;;;;;;;2.50;1.60;;;13.80;76.80;;;;;;5054309;28;20036;-76
2023/11/06 12:07:59;;;;;;;2.35;1.38;;;13.80;76.80;;;;;;5061460;28;20044;-76
2023/11/06 12:10:29;;;;;;;3.17;1.40;;;13.80;76.70;;;;;;5022480;28;20025;-76
2023/11/06 12:12:57;;;;;;;1.92;1.35;;;13.90;77.40;;;;;;5054116;28;20515;-75
2023/11/06 12:15:32;;;;;;;1.35;1.17;;;13.90;76.70;;;;;;5060224;28;20115;-76
2023/11/06 12:18:06;;;;;;;2.22;1.10;;;13.90;76.80;;;;;;5026968;28;20036;-76
2023/11/06 12:20:32;;;;;;;2.38;1.27;;;14.00;76.70;;;;;;5062319;28;20060;-75
2023/11/06 12:23:02;;;;;;;2.28;1.50;;;14.00;76.70;;;;;;5033589;28;20381;-76
2023/11/06 12:25:33;;;;;;;2.60;1.20;;;14.10;76.70;;;;;;5056862;28;20039;-77
2023/11/06 12:28:10;;;;;;;2.53;1.40;;;14.00;76.60;;;;;;5054000;28;20056;-76
2023/11/06 12:30:38;;;;;;;2.88;1.50;;;14.10;76.70;;;;;;5059804;28;20037;-75
2023/11/06 12:33:17;;;;;;;2.60;1.42;;;14.10;76.50;;;;;;5060162;28;20017;-76
2023/11/06 12:35:47;;;;;;;2.22;1.33;;;14.10;76.50;;;;;;5052791;28;20037;-76
2023/11/06 12:38:14;;;;;;;1.80;1.08;;;14.20;76.50;;;;;;5061446;28;20045;-76
2023/11/06 12:40:44;;;;;;;1.80;1.40;;;14.20;76.50;;;;;;5058209;28;20037;-76
2023/11/06 12:43:18;;;;;;;1.67;1.27;;;14.20;76.50;;;;;;5037184;28;20025;-77
2023/11/06 12:45:44;;;;;;;3.13;1.13;;;14.20;76.40;;;;;;5051887;28;20141;-76
2023/11/06 12:48:19;;;;;;;2.28;1.42;;;14.20;76.30;;;;;;5061027;28;20057;-77
2023/11/06 12:51:09;;;;;;;2.90;1.40;;;14.30;76.30;;;;;;5043639;28;20029;-77